createdAt,value
2022-09-20T00:01:40.834Z,100.00
2022-09-20T00:04:10.196Z,100.00
2022-09-20T00:06:38.451Z,100.00
2022-09-20T00:09:06.827Z,100.00
2022-09-20T00:11:37.088Z,100.00
2022-09-20T00:14:08.985Z,100.00
2022-09-20T00:16:41.126Z,100.00
2022-09-20T00:19:17.086Z,100.00
2022-09-20T00:21:45.562Z,100.00
2022-09-20T00:24:14.310Z,100.00
2022-09-20T00:26:42.624Z,100.00
2022-09-20T00:29:10.959Z,100.00
2022-09-20T00:31:40.446Z,100.00
2022-09-20T00:34:29.161Z,100.00
2022-09-20T00:36:57.198Z,100.00
2022-09-20T00:39:25.180Z,100.00
2022-09-20T00:41:53.206Z,100.00
2022-09-20T00:45:01.255Z,100.00
2022-09-20T00:47:35.936Z,100.00
2022-09-20T00:50:22.161Z,100.00
2022-09-20T00:52:58.417Z,100.00
2022-09-20T00:55:28.119Z,100.00
2022-09-20T00:57:57.048Z,100.00
2022-09-20T01:00:27.813Z,100.00
2022-09-20T01:03:02.513Z,100.00
2022-09-20T01:05:31.275Z,100.00
2022-09-20T01:07:59.719Z,100.00
2022-09-20T01:10:28.224Z,100.00
2022-09-20T01:12:56.498Z,100.00
2022-09-20T01:15:28.763Z,100.00
2022-09-20T01:18:01.635Z,100.00
2022-09-20T01:20:35.008Z,100.00
2022-09-20T01:23:24.600Z,100.00
2022-09-20T01:26:14.725Z,100.00
2022-09-20T01:28:48.065Z,100.00
2022-09-20T01:31:22.300Z,100.00
2022-09-20T01:33:58.522Z,100.00
2022-09-20T01:36:50.877Z,100.00
2022-09-20T01:39:30.367Z,100.00
2022-09-20T01:42:05.298Z,100.00
2022-09-20T01:44:59.487Z,100.00
2022-09-20T01:47:49.112Z,100.00
2022-09-20T01:50:32.721Z,100.00
2022-09-20T01:53:35.362Z,100.00
2022-09-20T01:56:09.245Z,100.00
2022-09-20T01:59:07.239Z,100.00
2022-09-20T02:02:02.645Z,100.00
2022-09-20T02:04:44.566Z,100.00
2022-09-20T02:07:31.253Z,100.00
2022-09-20T02:10:20.901Z,100.00
2022-09-20T02:13:18.472Z,100.00
2022-09-20T02:16:08.820Z,100.00
2022-09-20T02:18:45.918Z,100.00
2022-09-20T02:21:48.759Z,100.00
2022-09-20T02:24:53.575Z,100.00
2022-09-20T02:27:43.482Z,100.00
2022-09-20T02:30:21.121Z,100.00
2022-09-20T02:33:19.349Z,100.00
2022-09-20T02:36:32.007Z,100.00
2022-09-20T02:39:32.044Z,100.00
2022-09-20T02:42:25.213Z,100.00
2022-09-20T02:45:04.473Z,100.00
2022-09-20T02:47:42.778Z,100.00
2022-09-20T02:50:35.420Z,100.00
2022-09-20T02:53:26.861Z,100.00
2022-09-20T02:56:04.095Z,100.00
2022-09-20T02:59:04.594Z,100.00
2022-09-20T03:01:53.056Z,100.00
2022-09-20T03:04:30.268Z,100.00
2022-09-20T03:07:23.935Z,100.00
2022-09-20T03:10:19.293Z,100.00
2022-09-20T03:13:05.657Z,100.00
2022-09-20T03:15:48.991Z,100.00
2022-09-20T03:18:30.282Z,100.00
2022-09-20T03:21:23.171Z,100.00
2022-09-20T03:24:10.430Z,100.00
2022-09-20T03:27:07.860Z,100.00
2022-09-20T03:29:48.466Z,100.00
2022-09-20T03:32:28.716Z,100.00
2022-09-20T03:35:28.226Z,100.00
2022-09-20T03:37:59.131Z,100.00
2022-09-20T03:41:05.378Z,100.00
2022-09-20T03:43:39.357Z,100.00
2022-09-20T03:46:20.021Z,100.00
2022-09-20T03:48:57.294Z,100.00
2022-09-20T03:51:36.949Z,100.00
2022-09-20T03:54:42.793Z,100.00
2022-09-20T03:57:46.283Z,100.00
2022-09-20T04:00:23.770Z,100.00
2022-09-20T04:03:37.507Z,100.00
2022-09-20T04:06:41.856Z,100.00
2022-09-20T04:09:47.842Z,100.00
2022-09-20T04:12:59.074Z,100.00
2022-09-20T04:15:50.536Z,100.00
2022-09-20T04:18:52.816Z,100.00
2022-09-20T04:21:26.836Z,100.00
2022-09-20T04:24:12.936Z,100.00
2022-09-20T04:26:47.526Z,100.00
2022-09-20T04:29:40.920Z,100.00
2022-09-20T04:32:29.132Z,100.00
2022-09-20T04:35:47.167Z,100.00
2022-09-20T04:38:19.918Z,100.00
2022-09-20T04:41:13.184Z,100.00
2022-09-20T04:44:03.079Z,100.00
2022-09-20T04:47:16.584Z,100.00
2022-09-20T04:50:16.256Z,100.00
2022-09-20T04:52:56.746Z,100.00
2022-09-20T04:55:45.772Z,100.00
2022-09-20T04:58:33.365Z,100.00
2022-09-20T05:01:19.836Z,100.00
2022-09-20T05:04:25.494Z,100.00
2022-09-20T05:07:22.371Z,100.00
2022-09-20T05:10:15.023Z,100.00
2022-09-20T05:12:43.382Z,100.00
2022-09-20T05:15:21.508Z,100.00
2022-09-20T05:18:15.732Z,100.00
2022-09-20T05:21:13.621Z,100.00
2022-09-20T05:24:04.052Z,100.00
2022-09-20T05:26:39.095Z,100.00
2022-09-20T05:29:35.420Z,100.00
2022-09-20T05:32:14.938Z,100.00
2022-09-20T05:34:52.545Z,100.00
2022-09-20T05:37:42.581Z,100.00
2022-09-20T05:40:29.402Z,100.00
2022-09-20T05:43:21.180Z,100.00
2022-09-20T05:46:22.757Z,100.00
2022-09-20T05:48:57.677Z,100.00
2022-09-20T05:51:36.812Z,100.00
2022-09-20T05:54:50.635Z,100.00
2022-09-20T05:57:34.176Z,100.00
2022-09-20T06:00:07.763Z,100.00
2022-09-20T06:02:48.069Z,100.00
2022-09-20T06:05:33.869Z,100.00
2022-09-20T06:08:43.774Z,100.00
2022-09-20T06:11:23.383Z,100.00
2022-09-20T06:14:27.879Z,100.00
2022-09-20T06:17:05.372Z,100.00
2022-09-20T06:19:47.121Z,100.00
2022-09-20T06:22:37.109Z,100.00
2022-09-20T06:25:19.310Z,100.00
2022-09-20T06:27:52.636Z,100.00
2022-09-20T06:30:31.815Z,100.00
2022-09-20T06:33:08.041Z,100.00
2022-09-20T06:35:43.712Z,100.00
2022-09-20T06:38:49.480Z,100.00
2022-09-20T06:41:28.524Z,100.00
2022-09-20T06:43:59.224Z,100.00
2022-09-20T06:46:32.354Z,100.00
2022-09-20T06:49:00.789Z,100.00
2022-09-20T06:51:35.378Z,100.00
2022-09-20T06:54:06.001Z,100.00
2022-09-20T06:56:36.872Z,100.00
2022-09-20T06:59:08.826Z,100.00
2022-09-20T07:01:38.174Z,100.00
2022-09-20T07:04:06.546Z,100.00
2022-09-20T07:06:34.716Z,100.00
2022-09-20T07:09:04.477Z,100.00
2022-09-20T07:11:34.450Z,100.00
2022-09-20T07:14:02.767Z,100.00
2022-09-20T07:16:31.128Z,100.00
2022-09-20T07:19:00.110Z,100.00
2022-09-20T07:21:28.461Z,100.00
2022-09-20T07:23:58.216Z,100.00
2022-09-20T07:26:29.463Z,100.00
2022-09-20T07:28:59.505Z,100.00
2022-09-20T07:31:29.914Z,100.00
2022-09-20T07:33:58.860Z,100.00
2022-09-20T07:36:27.147Z,100.00
2022-09-20T07:38:55.420Z,100.00
2022-09-20T07:41:23.799Z,100.00
2022-09-20T07:43:52.382Z,100.00
2022-09-20T07:46:22.406Z,100.00
2022-09-20T07:48:50.704Z,100.00
2022-09-20T07:51:18.960Z,100.00
2022-09-20T07:53:47.177Z,100.00
2022-09-20T07:56:16.677Z,100.00
2022-09-20T07:58:48.705Z,100.00
2022-09-20T08:01:22.765Z,100.00
2022-09-20T08:03:52.037Z,100.00
2022-09-20T08:06:21.548Z,100.00
2022-09-20T08:08:51.806Z,100.00
2022-09-20T08:11:28.937Z,100.00
2022-09-20T08:14:08.324Z,100.00
2022-09-20T08:16:43.160Z,100.00
2022-09-20T08:19:21.047Z,100.00
2022-09-20T08:21:51.045Z,100.00
2022-09-20T08:24:19.376Z,100.00
2022-09-20T08:26:48.450Z,100.00
2022-09-20T08:29:16.818Z,100.00
2022-09-20T08:31:45.225Z,100.00
2022-09-20T08:34:16.333Z,100.00
2022-09-20T08:36:47.307Z,100.00
2022-09-20T08:42:14.915Z,100.00
2022-09-20T08:44:59.236Z,100.00
2022-09-20T08:47:49.660Z,100.00
2022-09-20T08:50:18.087Z,100.00
2022-09-20T08:52:49.772Z,100.00
2022-09-20T08:55:24.720Z,100.00
2022-09-20T08:57:54.324Z,100.00
2022-09-20T09:00:26.545Z,100.00
2022-09-20T09:02:57.558Z,100.00
2022-09-20T09:05:47.778Z,100.00
2022-09-20T09:08:19.613Z,100.00
2022-09-20T09:11:17.528Z,100.00
2022-09-20T09:14:30.771Z,100.00
2022-09-20T09:16:58.830Z,100.00
2022-09-20T09:19:43.442Z,100.00
2022-09-20T09:22:17.548Z,100.00
2022-09-20T09:24:46.454Z,100.00
2022-09-20T09:27:19.472Z,100.00
2022-09-20T09:29:53.127Z,100.00
2022-09-20T09:32:31.458Z,99.44
2022-09-20T09:35:21.232Z,97.61
2022-09-20T09:37:58.571Z,98.10
2022-09-20T09:40:29.512Z,98.58
2022-09-20T09:43:01.118Z,98.80
2022-09-20T09:45:38.795Z,99.28
2022-09-20T09:48:28.002Z,99.83
2022-09-20T09:51:15.540Z,99.97
2022-09-20T09:53:45.888Z,99.38
2022-09-20T09:56:38.668Z,98.83
2022-09-20T09:59:47.935Z,97.98
2022-09-20T10:02:31.104Z,97.30
2022-09-20T10:05:09.281Z,97.16
2022-09-20T10:07:40.349Z,96.96
2022-09-20T10:10:11.271Z,96.67
2022-09-20T10:12:54.458Z,96.98
2022-09-20T10:15:41.551Z,97.71
2022-09-20T10:18:12.590Z,98.51
2022-09-20T10:21:08.010Z,99.22
2022-09-20T10:24:04.507Z,99.92
2022-09-20T10:27:14.414Z,100.00
2022-09-20T10:30:00.530Z,100.00
2022-09-20T10:33:03.770Z,100.00
2022-09-20T10:35:52.650Z,100.00
2022-09-20T10:38:25.445Z,100.00
2022-09-20T10:41:24.339Z,100.00
2022-09-20T10:44:18.519Z,100.00
2022-09-20T10:47:11.046Z,100.00
2022-09-20T10:49:39.081Z,98.90
2022-09-20T10:52:22.040Z,98.03
2022-09-20T10:54:55.772Z,97.40
2022-09-20T10:57:55.779Z,97.81
2022-09-20T11:00:34.593Z,98.27
2022-09-20T11:03:11.525Z,99.02
2022-09-20T11:06:07.298Z,99.12
2022-09-20T11:08:38.534Z,99.22
2022-09-20T11:11:13.774Z,99.34
2022-09-20T11:13:54.100Z,97.83
2022-09-20T11:16:33.949Z,97.89
2022-09-20T11:19:34.834Z,98.29
2022-09-20T11:22:11.909Z,98.10
2022-09-20T11:24:57.995Z,98.53
2022-09-20T11:27:37.947Z,98.56
2022-09-20T11:30:15.964Z,99.18
2022-09-20T11:33:03.067Z,99.68
2022-09-20T11:35:35.094Z,99.81
2022-09-20T11:38:29.661Z,100.00
2022-09-20T11:41:17.810Z,100.00
2022-09-20T11:43:48.085Z,100.00
2022-09-20T11:46:27.015Z,100.00
2022-09-20T11:49:03.026Z,100.00
2022-09-20T11:52:03.523Z,100.00
2022-09-20T11:54:48.370Z,100.00
2022-09-20T11:57:17.066Z,100.00
2022-09-20T11:59:59.961Z,100.00
2022-09-20T12:02:37.388Z,100.00
2022-09-20T12:05:07.981Z,100.00
2022-09-20T12:07:43.953Z,100.00
2022-09-20T12:10:26.228Z,100.00
2022-09-20T12:13:00.873Z,100.00
2022-09-20T12:15:42.110Z,99.06
2022-09-20T12:18:39.707Z,96.95
2022-09-20T12:21:21.241Z,96.85
2022-09-20T12:23:52.625Z,96.92
2022-09-20T12:26:21.150Z,95.81
2022-09-20T12:28:58.370Z,96.25
2022-09-20T12:31:29.836Z,97.08
2022-09-20T12:34:04.189Z,98.83
2022-09-20T12:36:39.844Z,98.57
2022-09-20T12:39:17.562Z,97.85
2022-09-20T12:41:59.830Z,96.90
2022-09-20T12:44:44.184Z,94.62
2022-09-20T12:47:12.218Z,93.18
2022-09-20T12:50:00.752Z,91.26
2022-09-20T12:52:53.910Z,89.12
2022-09-20T12:55:28.110Z,88.36
2022-09-20T12:58:02.609Z,88.24
2022-09-20T13:01:01.213Z,88.72
2022-09-20T13:03:39.010Z,89.60
2022-09-20T13:06:07.176Z,89.45
2022-09-20T13:08:55.740Z,89.69
2022-09-20T13:11:27.595Z,90.48
2022-09-20T13:13:58.408Z,91.45
2022-09-20T13:16:40.478Z,91.84
2022-09-20T13:19:26.076Z,91.77
2022-09-20T13:22:01.312Z,92.64
2022-09-20T13:24:48.076Z,93.40
2022-09-20T13:27:21.232Z,93.49
2022-09-20T13:29:49.417Z,94.00
2022-09-20T13:32:31.639Z,94.33
2022-09-20T13:35:12.714Z,94.03
2022-09-20T13:38:00.546Z,94.04
2022-09-20T13:40:35.839Z,94.33
2022-09-20T13:43:24.622Z,95.13
2022-09-20T13:45:56.759Z,95.67
2022-09-20T13:48:29.152Z,95.30
2022-09-20T13:50:58.349Z,95.70
2022-09-20T13:53:41.067Z,95.85
2022-09-20T13:56:30.110Z,96.43
2022-09-20T13:59:05.255Z,96.44
2022-09-20T14:01:35.548Z,96.27
2022-09-20T14:04:08.095Z,95.82
2022-09-20T14:06:36.731Z,95.59
2022-09-20T14:09:11.011Z,95.70
2022-09-20T14:11:40.085Z,95.74
2022-09-20T14:14:10.056Z,96.34
2022-09-20T14:16:40.469Z,96.33
2022-09-20T14:19:09.070Z,95.97
2022-09-20T14:21:38.295Z,96.02
2022-09-20T14:24:25.021Z,95.78
2022-09-20T14:27:19.748Z,96.25
2022-09-20T14:29:50.550Z,96.05
2022-09-20T14:32:18.567Z,96.17
2022-09-20T14:35:00.223Z,95.75
2022-09-20T14:37:36.495Z,95.66
2022-09-20T14:40:17.499Z,95.89
2022-09-20T14:42:48.240Z,96.52
2022-09-20T14:45:21.229Z,96.72
2022-09-20T14:47:54.599Z,96.86
2022-09-20T14:50:39.645Z,97.11
2022-09-20T14:53:13.657Z,97.77
2022-09-20T14:56:04.353Z,97.98
2022-09-20T14:58:33.428Z,98.30
2022-09-20T15:01:18.971Z,98.36
2022-09-20T15:03:47.138Z,98.44
2022-09-20T15:06:15.372Z,98.86
2022-09-20T15:08:46.587Z,99.02
2022-09-20T15:11:17.291Z,99.21
2022-09-20T15:13:46.005Z,99.57
2022-09-20T15:16:17.646Z,99.76
2022-09-20T15:18:45.979Z,100.00
2022-09-20T15:21:14.020Z,100.00
2022-09-20T15:23:42.514Z,100.00
2022-09-20T15:26:13.728Z,100.00
2022-09-20T15:28:41.736Z,100.00
2022-09-20T15:31:10.911Z,100.00
2022-09-20T15:33:38.982Z,100.00
2022-09-20T15:36:08.250Z,100.00
2022-09-20T15:38:36.269Z,100.00
2022-09-20T15:41:04.885Z,100.00
2022-09-20T15:43:34.216Z,100.00
2022-09-20T15:46:24.723Z,100.00
2022-09-20T15:48:54.550Z,100.00
2022-09-20T15:51:23.318Z,100.00
2022-09-20T15:53:57.376Z,100.00
2022-09-20T15:56:30.707Z,100.00
2022-09-20T15:59:08.090Z,100.00
2022-09-20T16:01:41.476Z,100.00
2022-09-20T16:04:15.650Z,100.00
2022-09-20T16:06:46.539Z,100.00
2022-09-20T16:09:15.304Z,100.00
2022-09-20T16:11:43.574Z,100.00
2022-09-20T16:14:11.899Z,100.00
2022-09-20T16:16:42.474Z,100.00
2022-09-20T16:19:17.545Z,100.00
2022-09-20T16:21:56.600Z,100.00
2022-09-20T16:24:29.346Z,100.00
2022-09-20T16:27:01.161Z,100.00
2022-09-20T16:29:31.797Z,100.00
2022-09-20T16:32:03.915Z,100.00
2022-09-20T16:34:35.592Z,100.00
2022-09-20T16:37:12.450Z,100.00
2022-09-20T16:39:42.734Z,100.00
2022-09-20T16:42:13.198Z,100.00
2022-09-20T16:44:43.568Z,100.00
2022-09-20T16:47:18.719Z,100.00
2022-09-20T16:49:48.981Z,100.00
2022-09-20T16:52:17.351Z,100.00
2022-09-20T16:54:47.169Z,100.00
2022-09-20T16:57:16.462Z,100.00
2022-09-20T16:59:47.059Z,100.00
2022-09-20T17:02:16.185Z,100.00
2022-09-20T17:04:47.934Z,100.00
2022-09-20T17:07:17.082Z,100.00
2022-09-20T17:09:45.918Z,100.00
2022-09-20T17:12:19.669Z,100.00
2022-09-20T17:14:49.010Z,100.00
2022-09-20T17:17:18.752Z,100.00
2022-09-20T17:19:48.300Z,100.00
2022-09-20T17:22:18.185Z,100.00
2022-09-20T17:24:47.677Z,100.00
2022-09-20T17:27:17.171Z,100.00
2022-09-20T17:29:46.772Z,100.00
2022-09-20T17:32:15.645Z,100.00
2022-09-20T17:34:43.980Z,100.00
2022-09-20T17:37:12.797Z,100.00
2022-09-20T17:39:41.212Z,100.00
2022-09-20T17:42:09.502Z,100.00
2022-09-20T17:44:38.219Z,100.00
2022-09-20T17:47:06.722Z,100.00
2022-09-20T17:49:35.049Z,100.00
2022-09-20T17:52:04.619Z,100.00
2022-09-20T17:54:32.889Z,100.00
2022-09-20T17:57:01.668Z,100.00
2022-09-20T17:59:29.837Z,100.00
2022-09-20T18:01:58.437Z,100.00
2022-09-20T18:04:26.854Z,100.00
2022-09-20T18:06:55.784Z,100.00
2022-09-20T18:09:27.372Z,100.00
2022-09-20T18:11:56.263Z,100.00
2022-09-20T18:14:27.829Z,100.00
2022-09-20T18:17:01.226Z,100.00
2022-09-20T18:19:33.967Z,100.00
2022-09-20T18:22:03.422Z,100.00
2022-09-20T18:24:32.207Z,100.00
2022-09-20T18:27:01.224Z,100.00
2022-09-20T18:29:33.598Z,100.00
2022-09-20T18:32:02.614Z,100.00
2022-09-20T18:34:34.354Z,100.00
2022-09-20T18:37:03.998Z,100.00
2022-09-20T18:39:33.797Z,100.00
2022-09-20T18:42:03.486Z,100.00
2022-09-20T18:44:33.897Z,100.00
2022-09-20T18:47:04.213Z,100.00
2022-09-20T18:49:32.569Z,100.00
2022-09-20T18:52:01.766Z,100.00
2022-09-20T18:54:33.597Z,100.00
2022-09-20T18:57:02.567Z,100.00
2022-09-20T18:59:30.991Z,100.00
2022-09-20T19:02:45.301Z,100.00
2022-09-20T19:05:30.307Z,100.00
2022-09-20T19:07:59.198Z,100.00
2022-09-20T19:10:46.461Z,100.00
2022-09-20T19:13:43.262Z,100.00
2022-09-20T19:16:28.087Z,100.00
2022-09-20T19:19:27.071Z,100.00
2022-09-20T19:22:08.317Z,100.00
2022-09-20T19:25:02.167Z,100.00
2022-09-20T19:27:31.960Z,100.00
2022-09-20T19:30:00.578Z,100.00
2022-09-20T19:32:29.155Z,100.00
2022-09-20T19:35:01.953Z,100.00
2022-09-20T19:38:15.677Z,100.00
2022-09-20T19:41:11.302Z,100.00
2022-09-20T19:43:45.407Z,100.00
2022-09-20T19:46:45.119Z,100.00
2022-09-20T19:49:23.537Z,100.00
2022-09-20T19:51:52.181Z,100.00
2022-09-20T19:54:20.761Z,100.00
2022-09-20T19:56:55.772Z,100.00
2022-09-20T19:59:25.404Z,100.00
2022-09-20T20:01:54.499Z,100.00
2022-09-20T20:04:23.223Z,100.00
2022-09-20T20:07:07.341Z,100.00
2022-09-20T20:09:52.350Z,100.00
2022-09-20T20:12:31.214Z,100.00
2022-09-20T20:15:25.514Z,100.00
2022-09-20T20:17:53.745Z,100.00
2022-09-20T20:20:40.258Z,100.00
2022-09-20T20:23:30.496Z,100.00
2022-09-20T20:26:09.201Z,100.00
2022-09-20T20:28:37.908Z,100.00
2022-09-20T20:31:12.416Z,100.00
2022-09-20T20:33:41.120Z,100.00
2022-09-20T20:36:12.019Z,100.00
2022-09-20T20:38:41.808Z,100.00
2022-09-20T20:41:12.780Z,100.00
2022-09-20T20:43:42.828Z,100.00
2022-09-20T20:46:18.690Z,100.00
2022-09-20T20:48:47.974Z,100.00
2022-09-20T20:51:18.798Z,100.00
2022-09-20T20:53:53.054Z,100.00
2022-09-20T20:56:30.083Z,100.00
2022-09-20T20:59:02.046Z,100.00
2022-09-20T21:01:32.891Z,100.00
2022-09-20T21:04:01.845Z,100.00
2022-09-20T21:06:36.324Z,100.00
2022-09-20T21:09:05.924Z,100.00
2022-09-20T21:11:37.838Z,100.00
2022-09-20T21:14:07.479Z,100.00
2022-09-20T21:16:38.650Z,100.00
2022-09-20T21:19:07.156Z,100.00
2022-09-20T21:21:38.852Z,100.00
2022-09-20T21:24:09.196Z,100.00
2022-09-20T21:26:40.849Z,100.00
2022-09-20T21:29:14.672Z,100.00
2022-09-20T21:31:45.350Z,100.00
2022-09-20T21:34:15.749Z,100.00
2022-09-20T21:36:44.966Z,100.00
2022-09-20T21:39:13.378Z,100.00
2022-09-20T21:41:41.763Z,100.00
2022-09-20T21:44:10.847Z,100.00
2022-09-20T21:46:41.457Z,100.00
2022-09-20T21:49:11.763Z,100.00
2022-09-20T21:51:42.947Z,100.00
2022-09-20T21:54:11.794Z,100.00
2022-09-20T21:56:41.635Z,100.00
2022-09-20T21:59:09.965Z,100.00
2022-09-20T22:01:40.509Z,100.00
2022-09-20T22:04:11.225Z,100.00
2022-09-20T22:06:44.528Z,100.00
2022-09-20T22:09:15.447Z,100.00
2022-09-20T22:11:47.024Z,100.00
2022-09-20T22:14:19.963Z,100.00
2022-09-20T22:16:51.555Z,100.00
2022-09-20T22:19:20.645Z,100.00
2022-09-20T22:21:51.636Z,100.00
2022-09-20T22:24:19.961Z,100.00
2022-09-20T22:26:51.179Z,100.00
2022-09-20T22:29:20.304Z,100.00
2022-09-20T22:31:50.416Z,100.00
2022-09-20T22:34:24.480Z,100.00
2022-09-20T22:36:54.090Z,100.00
2022-09-20T22:39:22.266Z,100.00
2022-09-20T22:41:51.167Z,100.00
2022-09-20T22:44:19.416Z,100.00
2022-09-20T22:46:47.694Z,100.00
2022-09-20T22:49:16.301Z,100.00
2022-09-20T22:51:44.566Z,100.00
2022-09-20T22:54:12.987Z,100.00
2022-09-20T22:56:42.668Z,100.00
2022-09-20T22:59:15.795Z,100.00
2022-09-20T23:01:46.315Z,100.00
2022-09-20T23:04:20.219Z,100.00
2022-09-20T23:06:55.063Z,100.00
2022-09-20T23:09:26.400Z,100.00
2022-09-20T23:11:54.625Z,100.00
2022-09-20T23:14:23.501Z,100.00
2022-09-20T23:16:51.884Z,100.00
2022-09-20T23:19:20.704Z,100.00
2022-09-20T23:21:48.925Z,100.00
2022-09-20T23:24:17.260Z,100.00
2022-09-20T23:26:45.685Z,100.00
2022-09-20T23:29:16.403Z,100.00
2022-09-20T23:31:47.225Z,100.00
2022-09-20T23:34:18.040Z,100.00
2022-09-20T23:36:46.958Z,100.00
2022-09-20T23:39:16.440Z,100.00
2022-09-20T23:41:50.014Z,100.00
2022-09-20T23:44:20.247Z,100.00
2022-09-20T23:46:48.458Z,100.00
2022-09-20T23:49:16.845Z,100.00
2022-09-20T23:51:45.174Z,100.00
2022-09-20T23:54:13.456Z,100.00
2022-09-20T23:56:43.040Z,100.00
2022-09-20T23:59:11.319Z,100.00
